createdAt,value
2023-06-11T00:00:04.361Z,64.80
2023-06-11T00:01:04.199Z,64.30
2023-06-11T00:02:04.330Z,64.30
2023-06-11T00:04:04.258Z,64.80
2023-06-11T00:05:06.576Z,68.90
2023-06-11T00:07:04.122Z,68.00
2023-06-11T00:08:03.786Z,65.30
2023-06-11T00:09:06.986Z,65.10
2023-06-11T00:10:03.718Z,64.90
2023-06-11T00:11:06.968Z,65.50
2023-06-11T00:12:06.034Z,65.30
2023-06-11T00:13:06.140Z,65.40
2023-06-11T00:15:04.348Z,64.70
2023-06-11T00:16:06.554Z,65.00
2023-06-11T00:17:04.167Z,65.00
2023-06-11T00:18:03.918Z,65.40
2023-06-11T00:19:03.560Z,65.90
2023-06-11T00:20:04.184Z,65.60
2023-06-11T00:21:06.431Z,65.50
2023-06-11T00:22:06.517Z,64.90
2023-06-11T00:24:03.875Z,65.00
2023-06-11T00:26:04.239Z,65.00
2023-06-11T00:27:06.420Z,64.80
2023-06-11T00:28:06.538Z,65.10
2023-06-11T00:29:09.416Z,64.90
2023-06-11T00:30:04.234Z,64.60
2023-06-11T00:31:06.410Z,65.70
2023-06-11T00:32:06.622Z,65.20
2023-06-11T00:33:06.963Z,65.80
2023-06-11T00:34:03.476Z,65.60
2023-06-11T00:35:10.369Z,65.80
2023-06-11T00:37:06.641Z,65.50
2023-06-11T00:39:06.512Z,65.00
2023-06-11T00:40:04.087Z,65.10
2023-06-11T00:41:03.785Z,65.30
2023-06-11T00:43:04.264Z,65.60
2023-06-11T00:44:06.728Z,65.60
2023-06-11T00:46:04.266Z,65.30
2023-06-11T00:47:04.138Z,65.20
2023-06-11T00:49:03.661Z,65.60
2023-06-11T00:50:05.167Z,65.60
2023-06-11T00:52:11.594Z,65.20
2023-06-11T00:53:04.236Z,65.00
2023-06-11T00:54:06.387Z,65.30
2023-06-11T00:55:06.463Z,65.50
2023-06-11T00:56:06.501Z,65.80
2023-06-11T00:57:06.560Z,66.20
2023-06-11T00:59:06.468Z,66.20
2023-06-11T01:00:09.037Z,66.20
2023-06-11T01:02:04.208Z,66.50
2023-06-11T01:03:03.952Z,66.10
2023-06-11T01:04:04.152Z,66.20
2023-06-11T01:05:04.194Z,66.10
2023-06-11T01:06:04.159Z,66.00
2023-06-11T01:07:03.766Z,66.30
2023-06-11T01:08:07.091Z,67.00
2023-06-11T01:10:04.235Z,67.00
2023-06-11T01:11:03.890Z,67.30
2023-06-11T01:13:04.267Z,67.80
2023-06-11T01:14:03.921Z,67.50
2023-06-11T01:16:04.206Z,67.50
2023-06-11T01:17:04.209Z,67.50
2023-06-11T01:18:04.085Z,67.40
2023-06-11T01:19:06.337Z,67.30
2023-06-11T01:22:06.768Z,67.00
2023-06-11T01:23:04.514Z,66.90
2023-06-11T01:24:04.523Z,67.70
2023-06-11T01:25:10.068Z,68.30
2023-06-11T01:26:08.914Z,68.50
2023-06-11T01:27:04.393Z,68.50
2023-06-11T01:28:04.115Z,68.30
2023-06-11T01:29:03.824Z,68.30
2023-06-11T01:30:06.073Z,68.30
2023-06-11T01:32:06.968Z,68.20
2023-06-11T01:34:06.750Z,67.90
2023-06-11T01:35:12.226Z,67.80
2023-06-11T01:36:03.910Z,67.70
2023-06-11T01:37:06.064Z,68.00
2023-06-11T01:38:08.696Z,66.30
2023-06-11T01:40:03.881Z,66.60
2023-06-11T01:41:06.037Z,67.20
2023-06-11T01:42:06.185Z,66.80
2023-06-11T01:43:03.816Z,66.90
2023-06-11T01:44:03.502Z,67.30
2023-06-11T01:45:04.128Z,67.70
2023-06-11T01:46:03.723Z,68.00
2023-06-11T01:47:09.754Z,67.80
2023-06-11T01:49:06.551Z,68.00
2023-06-11T01:50:04.060Z,67.70
2023-06-11T01:52:09.421Z,68.10
2023-06-11T01:53:03.952Z,68.00
2023-06-11T01:55:03.747Z,68.40
2023-06-11T01:56:04.338Z,68.40
2023-06-11T01:57:06.506Z,68.40
2023-06-11T01:58:09.123Z,67.90
2023-06-11T01:59:03.632Z,68.00
2023-06-11T02:00:04.218Z,67.90
2023-06-11T02:01:06.536Z,68.10
2023-06-11T02:02:06.794Z,67.90
2023-06-11T02:03:07.292Z,67.90
2023-06-11T02:05:03.504Z,67.90
2023-06-11T02:06:04.176Z,68.20
2023-06-11T02:07:03.781Z,68.30
2023-06-11T02:08:04.410Z,68.40
2023-06-11T02:09:03.595Z,68.10
2023-06-11T02:10:04.324Z,68.00
2023-06-11T02:11:06.727Z,68.20
2023-06-11T02:12:04.264Z,67.90
2023-06-11T02:13:06.977Z,67.50
2023-06-11T02:15:10.249Z,67.60
2023-06-11T02:17:04.056Z,67.70
2023-06-11T02:19:06.889Z,68.10
2023-06-11T02:21:06.649Z,68.40
2023-06-11T02:22:06.766Z,67.90
2023-06-11T02:23:04.363Z,67.90
2023-06-11T02:24:06.647Z,68.10
2023-06-11T02:25:10.257Z,68.00
2023-06-11T02:27:09.250Z,67.90
2023-06-11T02:28:03.756Z,68.10
2023-06-11T02:29:03.674Z,68.30
2023-06-11T02:30:04.306Z,70.60
2023-06-11T02:31:03.890Z,70.50
2023-06-11T02:32:03.714Z,68.40
2023-06-11T02:33:04.597Z,68.20
2023-06-11T02:34:06.790Z,68.10
2023-06-11T02:35:06.850Z,68.90
2023-06-11T02:36:04.380Z,68.80
2023-06-11T02:37:04.088Z,68.60
2023-06-11T02:38:06.314Z,71.00
2023-06-11T02:39:06.360Z,69.50
2023-06-11T02:41:04.533Z,72.70
2023-06-11T02:42:06.649Z,72.10
2023-06-11T02:44:03.847Z,72.00
2023-06-11T02:45:04.177Z,72.70
2023-06-11T02:46:06.552Z,72.00
2023-06-11T02:47:06.666Z,69.10
2023-06-11T02:49:04.370Z,70.50
2023-06-11T02:50:06.836Z,71.60
2023-06-11T02:51:04.314Z,68.80
2023-06-11T02:52:06.721Z,69.10
2023-06-11T02:53:04.283Z,69.10
2023-06-11T02:54:08.978Z,69.10
2023-06-11T02:55:06.098Z,68.80
2023-06-11T02:56:08.687Z,70.00
2023-06-11T02:57:04.172Z,69.60
2023-06-11T02:58:03.851Z,70.10
2023-06-11T02:59:06.006Z,70.10
2023-06-11T03:00:03.555Z,69.90
2023-06-11T03:01:06.822Z,71.20
2023-06-11T03:02:04.313Z,69.20
2023-06-11T03:03:04.242Z,69.70
2023-06-11T03:04:04.404Z,70.00
2023-06-11T03:05:04.052Z,70.30
2023-06-11T03:06:06.235Z,71.10
2023-06-11T03:07:06.277Z,71.10
2023-06-11T03:08:06.331Z,71.00
2023-06-11T03:09:06.331Z,70.90
2023-06-11T03:10:03.870Z,70.80
2023-06-11T03:11:06.039Z,70.00
2023-06-11T03:13:06.747Z,70.60
2023-06-11T03:15:06.075Z,69.70
2023-06-11T03:17:04.282Z,69.30
2023-06-11T03:18:06.595Z,69.50
2023-06-11T03:19:04.123Z,70.60
2023-06-11T03:20:03.866Z,70.40
2023-06-11T03:21:11.318Z,69.40
2023-06-11T03:23:06.566Z,70.20
2023-06-11T03:25:04.050Z,70.30
2023-06-11T03:26:06.233Z,69.70
2023-06-11T03:27:08.867Z,69.60
2023-06-11T03:30:04.271Z,69.60
2023-06-11T03:31:03.974Z,69.50
2023-06-11T03:32:06.557Z,69.60
2023-06-11T03:34:03.820Z,69.20
2023-06-11T03:35:06.160Z,69.80
2023-06-11T03:36:06.245Z,69.40
2023-06-11T03:37:06.320Z,69.60
2023-06-11T03:39:03.499Z,69.60
2023-06-11T03:40:04.223Z,70.00
2023-06-11T03:41:04.669Z,70.30
2023-06-11T03:42:09.432Z,69.60
2023-06-11T03:43:03.962Z,69.70
2023-06-11T03:44:06.093Z,72.80
2023-06-11T03:45:06.138Z,70.20
2023-06-11T03:46:06.182Z,70.10
2023-06-11T03:47:06.394Z,69.80
2023-06-11T03:48:06.572Z,69.40
2023-06-11T03:50:08.966Z,69.40
2023-06-11T03:52:04.313Z,74.00
2023-06-11T03:53:04.002Z,71.20
2023-06-11T03:54:06.151Z,70.60
2023-06-11T03:56:04.301Z,70.10
2023-06-11T03:57:04.329Z,72.00
2023-06-11T03:58:06.557Z,70.30
2023-06-11T04:00:03.886Z,70.20
2023-06-11T04:01:03.509Z,69.20
2023-06-11T04:02:04.297Z,69.70
2023-06-11T04:03:04.185Z,70.60
2023-06-11T04:05:03.603Z,67.90
2023-06-11T04:06:04.170Z,67.60
2023-06-11T04:07:03.768Z,67.40
2023-06-11T04:08:07.035Z,66.10
2023-06-11T04:10:06.725Z,66.50
2023-06-11T04:11:06.959Z,65.30
2023-06-11T04:13:04.207Z,65.50
2023-06-11T04:14:03.817Z,64.90
2023-06-11T04:15:04.549Z,64.60
2023-06-11T04:16:07.444Z,64.50
2023-06-11T04:18:07.071Z,64.50
2023-06-11T04:19:06.516Z,63.70
2023-06-11T04:21:08.808Z,63.00
2023-06-11T04:24:09.209Z,62.30
2023-06-11T04:25:06.975Z,61.50
2023-06-11T04:26:03.964Z,61.50
2023-06-11T04:27:03.637Z,61.40
2023-06-11T04:28:08.596Z,60.60
2023-06-11T04:30:06.767Z,59.70
2023-06-11T04:32:03.997Z,59.30
2023-06-11T04:33:03.691Z,59.10
2023-06-11T04:34:03.892Z,59.40
2023-06-11T04:36:04.443Z,58.50
2023-06-11T04:37:04.072Z,57.50
2023-06-11T04:38:03.823Z,58.10
2023-06-11T04:39:04.495Z,57.70
2023-06-11T04:40:06.681Z,57.10
2023-06-11T04:41:04.357Z,57.30
2023-06-11T04:42:09.364Z,56.60
2023-06-11T04:43:06.524Z,56.30
2023-06-11T04:44:06.597Z,56.60
2023-06-11T04:45:09.486Z,56.20
2023-06-11T04:47:04.171Z,56.20
2023-06-11T04:48:03.897Z,55.60
2023-06-11T04:49:08.827Z,55.50
2023-06-11T04:51:06.487Z,54.20
2023-06-11T04:52:06.517Z,54.20
2023-06-11T04:53:11.670Z,53.90
2023-06-11T04:55:04.738Z,53.70
2023-06-11T04:56:14.422Z,53.40
2023-06-11T04:58:03.539Z,52.80
2023-06-11T04:59:11.764Z,52.40
2023-06-11T05:01:04.431Z,52.90
2023-06-11T05:03:04.491Z,52.10
2023-06-11T05:04:04.657Z,51.90
2023-06-11T05:05:04.661Z,52.20
2023-06-11T05:06:04.443Z,51.50
2023-06-11T05:07:04.054Z,52.70
2023-06-11T05:08:06.449Z,50.50
2023-06-11T05:10:03.768Z,49.30
2023-06-11T05:11:04.072Z,49.10
2023-06-11T05:12:03.625Z,49.20
2023-06-11T05:13:09.412Z,48.40
2023-06-11T05:16:04.304Z,48.30
2023-06-11T05:17:06.572Z,48.00
2023-06-11T05:18:06.489Z,47.60
2023-06-11T05:19:06.586Z,46.80
2023-06-11T05:20:09.258Z,47.50
2023-06-11T05:21:03.748Z,47.30
2023-06-11T05:22:04.365Z,47.40
2023-06-11T05:23:10.928Z,47.00
2023-06-11T05:24:04.605Z,47.10
2023-06-11T05:25:04.238Z,46.90
2023-06-11T05:26:06.565Z,47.00
2023-06-11T05:27:06.625Z,47.00
2023-06-11T05:28:06.794Z,46.30
2023-06-11T05:29:04.311Z,46.10
2023-06-11T05:30:06.573Z,46.00
2023-06-11T05:31:04.065Z,45.80
2023-06-11T05:32:03.824Z,45.60
2023-06-11T05:33:07.198Z,45.70
2023-06-11T05:34:06.378Z,48.10
2023-06-11T05:35:09.128Z,44.50
2023-06-11T05:36:11.404Z,51.90
2023-06-11T05:38:03.741Z,52.30
2023-06-11T05:39:04.471Z,52.40
2023-06-11T05:40:04.181Z,52.70
2023-06-11T05:41:06.416Z,45.70
2023-06-11T05:42:03.917Z,45.70
2023-06-11T05:43:03.649Z,46.30
2023-06-11T05:44:11.910Z,44.30
2023-06-11T05:45:04.451Z,44.20
2023-06-11T05:47:06.417Z,45.20
2023-06-11T05:48:11.691Z,44.40
2023-06-11T05:50:19.533Z,43.70
2023-06-11T05:51:06.682Z,44.80
2023-06-11T05:52:09.350Z,45.00
2023-06-11T05:53:03.808Z,45.20
2023-06-11T05:54:03.540Z,44.80
2023-06-11T05:55:06.772Z,44.90
2023-06-11T05:56:04.270Z,44.40
2023-06-11T05:57:06.447Z,44.30
2023-06-11T05:58:04.018Z,44.00
2023-06-11T05:59:06.256Z,43.90
2023-06-11T06:00:06.352Z,43.50
2023-06-11T06:02:03.828Z,44.40
2023-06-11T06:04:04.941Z,43.80
2023-06-11T06:06:06.117Z,43.30
2023-06-11T06:08:04.219Z,43.50
2023-06-11T06:09:03.924Z,43.50
2023-06-11T06:10:03.704Z,43.40
2023-06-11T06:11:06.932Z,43.20
2023-06-11T06:12:07.078Z,43.10
2023-06-11T06:13:06.210Z,43.30
2023-06-11T06:14:03.764Z,43.20
2023-06-11T06:15:10.333Z,43.20
2023-06-11T06:16:09.253Z,42.80
2023-06-11T06:18:03.720Z,42.50
2023-06-11T06:19:07.095Z,42.60
2023-06-11T06:20:03.969Z,42.90
2023-06-11T06:21:06.185Z,42.30
2023-06-11T06:23:04.368Z,42.30
2023-06-11T06:24:04.209Z,41.80
2023-06-11T06:25:03.958Z,42.30
2023-06-11T06:26:03.687Z,42.00
2023-06-11T06:27:04.372Z,41.50
2023-06-11T06:28:04.034Z,41.70
2023-06-11T06:29:03.822Z,41.50
2023-06-11T06:30:04.462Z,42.10
2023-06-11T06:31:06.716Z,42.10
2023-06-11T06:32:06.912Z,41.40
2023-06-11T06:33:13.868Z,40.70
2023-06-11T06:34:03.622Z,40.50
2023-06-11T06:35:06.939Z,39.60
2023-06-11T06:37:06.681Z,39.50
2023-06-11T06:39:06.470Z,39.30
2023-06-11T06:41:06.252Z,38.60
2023-06-11T06:42:06.428Z,38.30
2023-06-11T06:43:03.996Z,38.50
2023-06-11T06:44:06.324Z,38.40
2023-06-11T06:45:06.442Z,38.60
2023-06-11T06:46:06.540Z,38.20
2023-06-11T06:47:06.767Z,38.70
2023-06-11T06:48:06.937Z,38.10
2023-06-11T06:49:06.072Z,38.50
2023-06-11T06:50:03.614Z,38.50
2023-06-11T06:51:04.379Z,38.30
2023-06-11T06:52:04.057Z,38.50
2023-06-11T06:53:06.385Z,37.50
2023-06-11T06:55:06.740Z,35.70
2023-06-11T06:56:03.361Z,35.50
2023-06-11T06:57:06.496Z,36.10
2023-06-11T06:58:06.543Z,36.50
2023-06-11T07:00:06.576Z,35.80
2023-06-11T07:01:07.107Z,35.60
2023-06-11T07:02:03.720Z,35.70
2023-06-11T07:03:04.246Z,34.80
2023-06-11T07:04:04.037Z,34.40
2023-06-11T07:05:06.044Z,34.60
2023-06-11T07:06:06.496Z,34.90
2023-06-11T07:07:06.698Z,34.60
2023-06-11T07:09:03.921Z,33.70
2023-06-11T07:10:03.654Z,34.30
2023-06-11T07:11:04.447Z,34.10
2023-06-11T07:13:04.098Z,34.20
2023-06-11T07:15:04.468Z,34.10
2023-06-11T07:16:06.943Z,34.20
2023-06-11T07:17:03.485Z,34.20
2023-06-11T07:18:04.274Z,34.90
2023-06-11T07:19:03.725Z,31.80
2023-06-11T07:20:03.776Z,33.00
2023-06-11T07:21:06.965Z,34.00
2023-06-11T07:23:09.063Z,34.10
2023-06-11T07:24:03.647Z,34.10
2023-06-11T07:25:06.916Z,33.60
2023-06-11T07:26:06.920Z,34.00
2023-06-11T07:27:12.036Z,32.60
2023-06-11T07:29:06.633Z,33.50
2023-06-11T07:30:04.193Z,33.20
2023-06-11T07:31:03.965Z,33.20
2023-06-11T07:33:04.391Z,32.50
2023-06-11T07:34:04.055Z,31.10
2023-06-11T07:36:06.933Z,29.40
2023-06-11T07:37:09.489Z,29.10
2023-06-11T07:38:06.577Z,27.90
2023-06-11T07:39:04.160Z,28.00
2023-06-11T07:40:06.080Z,27.80
2023-06-11T07:41:03.697Z,27.60
2023-06-11T07:42:06.863Z,28.90
2023-06-11T07:43:07.033Z,29.20
2023-06-11T07:45:04.225Z,28.50
2023-06-11T07:46:03.811Z,29.30
2023-06-11T07:47:04.618Z,28.80
2023-06-11T07:48:04.496Z,29.10
2023-06-11T07:49:06.851Z,29.00
2023-06-11T07:51:06.735Z,29.80
2023-06-11T07:52:09.411Z,30.10
2023-06-11T07:54:03.599Z,31.00
2023-06-11T07:55:09.342Z,31.00
2023-06-11T07:56:06.413Z,30.60
2023-06-11T07:57:11.926Z,30.70
2023-06-11T07:58:04.418Z,30.50
2023-06-11T07:59:06.538Z,28.90
2023-06-11T08:00:09.423Z,29.50
2023-06-11T08:01:09.437Z,28.40
2023-06-11T08:02:03.932Z,28.10
2023-06-11T08:03:03.772Z,28.40
2023-06-11T08:04:06.126Z,28.40
2023-06-11T08:05:06.128Z,29.20
2023-06-11T08:07:03.651Z,30.20
2023-06-11T08:08:04.384Z,29.10
2023-06-11T08:09:03.979Z,29.70
2023-06-11T08:10:03.612Z,29.80
2023-06-11T08:11:04.308Z,29.50
2023-06-11T08:12:03.944Z,29.00
2023-06-11T08:13:03.531Z,29.50
2023-06-11T08:14:04.138Z,28.80
2023-06-11T08:15:03.724Z,29.50
2023-06-11T08:16:08.545Z,27.60
2023-06-11T08:17:09.287Z,28.80
2023-06-11T08:18:03.792Z,28.50
2023-06-11T08:19:03.554Z,28.20
2023-06-11T08:20:06.644Z,27.60
2023-06-11T08:22:03.772Z,28.20
2023-06-11T08:23:04.545Z,28.10
2023-06-11T08:24:07.088Z,28.10
2023-06-11T08:25:03.862Z,28.50
2023-06-11T08:26:06.089Z,27.80
2023-06-11T08:28:09.404Z,28.60
2023-06-11T08:29:03.932Z,28.00
2023-06-11T08:30:03.620Z,28.10
2023-06-11T08:31:03.545Z,27.90
2023-06-11T08:32:06.805Z,27.50
2023-06-11T08:33:06.922Z,28.00
2023-06-11T08:34:06.944Z,27.60
2023-06-11T08:35:07.006Z,26.30
2023-06-11T08:36:03.584Z,24.80
2023-06-11T08:37:04.174Z,25.70
2023-06-11T08:38:06.309Z,25.20
2023-06-11T08:40:04.533Z,25.50
2023-06-11T08:41:04.178Z,25.30
2023-06-11T08:42:03.762Z,24.00
2023-06-11T08:43:07.001Z,24.40
2023-06-11T08:44:06.173Z,22.90
2023-06-11T08:45:06.235Z,23.70
2023-06-11T08:46:06.337Z,21.80
2023-06-11T08:48:06.191Z,19.80
2023-06-11T08:49:04.310Z,20.20
2023-06-11T08:50:03.612Z,18.70
2023-06-11T08:51:03.942Z,19.40
2023-06-11T08:52:03.588Z,19.00
2023-06-11T08:53:04.287Z,20.50
2023-06-11T08:56:03.556Z,20.60
2023-06-11T08:57:04.254Z,20.20
2023-06-11T08:58:09.011Z,19.50
2023-06-11T09:00:04.338Z,20.00
2023-06-11T09:01:14.116Z,21.70
2023-06-11T09:03:03.580Z,19.80
2023-06-11T09:04:06.931Z,20.60
2023-06-11T09:05:08.550Z,19.20
2023-06-11T09:07:03.974Z,19.80
2023-06-11T09:08:03.710Z,19.80
2023-06-11T09:09:04.419Z,18.30
2023-06-11T09:10:04.357Z,18.60
2023-06-11T09:12:03.573Z,20.50
2023-06-11T09:13:04.213Z,19.80
2023-06-11T09:14:06.514Z,20.00
2023-06-11T09:15:09.230Z,18.20
2023-06-11T09:16:03.942Z,18.00
2023-06-11T09:17:06.178Z,16.90
2023-06-11T09:18:10.077Z,16.70
2023-06-11T09:19:06.180Z,17.90
2023-06-11T09:20:06.309Z,16.70
2023-06-11T09:22:03.576Z,17.70
2023-06-11T09:23:04.260Z,17.40
2023-06-11T09:24:03.976Z,17.50
2023-06-11T09:25:03.670Z,17.80
2023-06-11T09:26:04.374Z,18.20
2023-06-11T09:28:03.686Z,19.00
2023-06-11T09:29:06.771Z,18.90
2023-06-11T09:31:06.537Z,18.60
2023-06-11T09:32:23.665Z,15.40
2023-06-11T09:33:06.774Z,18.50
2023-06-11T09:34:06.785Z,18.50
2023-06-11T09:35:06.826Z,19.00
2023-06-11T09:37:03.981Z,17.90
2023-06-11T09:39:04.428Z,18.10
2023-06-11T09:40:04.025Z,17.20
2023-06-11T09:41:06.232Z,16.90
2023-06-11T09:42:08.932Z,17.20
2023-06-11T09:44:04.341Z,17.80
2023-06-11T09:45:04.006Z,17.00
2023-06-11T09:47:04.127Z,17.70
2023-06-11T09:48:11.582Z,17.20
2023-06-11T09:51:04.437Z,17.10
2023-06-11T09:52:04.016Z,17.70
2023-06-11T09:53:06.228Z,17.80
2023-06-11T09:55:06.971Z,19.10
2023-06-11T09:57:03.802Z,17.90
2023-06-11T09:58:06.136Z,18.50
2023-06-11T09:59:06.195Z,18.60
2023-06-11T10:01:08.158Z,19.50
2023-06-11T10:02:06.458Z,16.90
2023-06-11T10:04:03.937Z,17.40
2023-06-11T10:06:04.530Z,17.00
2023-06-11T10:07:04.225Z,16.70
2023-06-11T10:08:03.955Z,17.70
2023-06-11T10:09:03.622Z,17.70
2023-06-11T10:10:04.208Z,18.80
2023-06-11T10:11:03.898Z,17.90
2023-06-11T10:12:06.146Z,18.20
2023-06-11T10:13:08.769Z,17.30
2023-06-11T10:14:09.334Z,18.00
2023-06-11T10:16:03.745Z,18.10
2023-06-11T10:17:04.471Z,17.90
2023-06-11T10:18:04.109Z,17.40
2023-06-11T10:20:04.361Z,16.90
2023-06-11T10:21:04.066Z,17.40
2023-06-11T10:22:03.720Z,17.40
2023-06-11T10:23:08.473Z,16.90
2023-06-11T10:24:04.233Z,17.80
2023-06-11T10:25:06.447Z,16.70
2023-06-11T10:27:06.396Z,17.50
2023-06-11T10:28:04.073Z,16.70
2023-06-11T10:29:07.231Z,17.00
2023-06-11T10:31:03.671Z,18.10
2023-06-11T10:32:04.422Z,17.90
2023-06-11T10:33:07.175Z,18.60
2023-06-11T10:34:03.987Z,18.40
2023-06-11T10:35:08.945Z,18.50
2023-06-11T10:37:03.448Z,18.70
2023-06-11T10:38:04.246Z,19.10
2023-06-11T10:40:03.533Z,19.10
2023-06-11T10:41:06.696Z,18.20
2023-06-11T10:43:06.534Z,18.70
2023-06-11T10:44:04.202Z,18.60
2023-06-11T10:45:06.532Z,18.20
2023-06-11T10:46:04.087Z,17.90
2023-06-11T10:47:11.403Z,18.30
2023-06-11T10:49:04.037Z,18.50
2023-06-11T10:50:06.298Z,18.80
2023-06-11T10:51:03.858Z,19.00
2023-06-11T10:52:06.941Z,18.40
2023-06-11T10:53:05.004Z,18.80
2023-06-11T10:55:06.835Z,17.80
2023-06-11T10:56:06.879Z,17.50
2023-06-11T10:57:09.511Z,17.90
2023-06-11T10:59:03.813Z,18.10
2023-06-11T11:00:03.519Z,18.20
2023-06-11T11:01:04.323Z,18.70
2023-06-11T11:02:06.701Z,19.10
2023-06-11T11:03:07.219Z,19.60
2023-06-11T11:04:03.877Z,19.30
2023-06-11T11:05:03.584Z,20.30
2023-06-11T11:06:04.184Z,20.10
2023-06-11T11:07:03.800Z,19.80
2023-06-11T11:08:04.428Z,19.40
2023-06-11T11:10:06.362Z,19.90
2023-06-11T11:11:04.008Z,20.40
2023-06-11T11:12:03.677Z,19.80
2023-06-11T11:13:04.331Z,20.40
2023-06-11T11:14:03.990Z,21.60
2023-06-11T11:15:06.261Z,19.20
2023-06-11T11:16:03.868Z,19.10
2023-06-11T11:17:03.980Z,19.90
2023-06-11T11:18:03.917Z,20.10
2023-06-11T11:19:03.508Z,19.80
2023-06-11T11:20:04.302Z,19.00
2023-06-11T11:21:03.993Z,20.60
2023-06-11T11:22:06.137Z,18.60
2023-06-11T11:24:06.845Z,19.30
2023-06-11T11:25:06.935Z,19.50
2023-06-11T11:26:07.022Z,19.80
2023-06-11T11:27:03.568Z,20.00
2023-06-11T11:28:04.194Z,19.90
2023-06-11T11:29:03.806Z,19.50
2023-06-11T11:30:04.802Z,19.00
2023-06-11T11:32:04.193Z,19.50
2023-06-11T11:33:03.857Z,19.30
2023-06-11T11:34:03.564Z,19.10
2023-06-11T11:35:04.286Z,19.10
2023-06-11T11:36:04.024Z,19.50
2023-06-11T11:37:03.693Z,21.20
2023-06-11T11:38:06.921Z,19.90
2023-06-11T11:39:03.479Z,19.80
2023-06-11T11:40:04.176Z,20.50
2023-06-11T11:41:03.876Z,21.10
2023-06-11T11:43:04.437Z,19.40
2023-06-11T11:44:04.016Z,19.60
2023-06-11T11:45:03.731Z,19.40
2023-06-11T11:46:04.513Z,20.30
2023-06-11T11:47:04.112Z,20.60
2023-06-11T11:48:06.087Z,20.00
2023-06-11T11:49:08.857Z,20.30
2023-06-11T11:50:04.301Z,20.40
2023-06-11T11:51:03.898Z,21.40
2023-06-11T11:53:04.180Z,20.00
2023-06-11T11:54:04.513Z,20.20
2023-06-11T11:55:04.100Z,20.80
2023-06-11T11:56:07.260Z,20.40
2023-06-11T11:57:03.988Z,21.00
2023-06-11T11:58:03.670Z,22.80
2023-06-11T11:59:04.311Z,21.20
2023-06-11T12:00:06.564Z,20.20
2023-06-11T12:02:03.818Z,21.10
2023-06-11T12:03:04.677Z,21.60
2023-06-11T12:04:11.982Z,21.50
2023-06-11T12:05:06.133Z,21.00
2023-06-11T12:06:06.344Z,21.50
2023-06-11T12:07:06.441Z,22.00
2023-06-11T12:09:03.667Z,22.80
2023-06-11T12:10:04.435Z,21.90
2023-06-11T12:11:06.636Z,22.10
2023-06-11T12:12:06.572Z,21.90
2023-06-11T12:13:04.167Z,21.70
2023-06-11T12:14:06.460Z,21.90
2023-06-11T12:15:09.087Z,21.40
2023-06-11T12:16:05.680Z,21.50
2023-06-11T12:17:04.982Z,21.60
2023-06-11T12:18:03.744Z,21.70
2023-06-11T12:19:24.057Z,21.60
2023-06-11T12:21:06.505Z,22.40
2023-06-11T12:22:06.611Z,22.60
2023-06-11T12:23:06.898Z,22.60
2023-06-11T12:24:07.036Z,22.70
2023-06-11T12:25:06.393Z,22.20
2023-06-11T12:27:12.585Z,22.70
2023-06-11T12:29:06.156Z,22.40
2023-06-11T12:30:06.300Z,23.80
2023-06-11T12:31:06.516Z,22.70
2023-06-11T12:33:03.947Z,24.20
2023-06-11T12:34:06.222Z,23.20
2023-06-11T12:35:06.267Z,23.30
2023-06-11T12:36:03.777Z,23.00
2023-06-11T12:37:06.961Z,24.10
2023-06-11T12:38:04.501Z,23.30
2023-06-11T12:39:04.319Z,23.10
2023-06-11T12:40:03.988Z,23.00
2023-06-11T12:41:06.091Z,22.60
2023-06-11T12:43:04.294Z,23.30
2023-06-11T12:44:03.941Z,22.60
2023-06-11T12:45:04.862Z,23.80
2023-06-11T12:46:06.275Z,23.40
2023-06-11T12:47:06.343Z,23.20
2023-06-11T12:48:03.920Z,22.60
2023-06-11T12:49:11.318Z,22.00
2023-06-11T12:50:03.788Z,22.00
2023-06-11T12:51:07.211Z,23.00
2023-06-11T12:52:06.256Z,24.20
2023-06-11T12:54:08.663Z,23.50
2023-06-11T12:56:03.915Z,23.60
2023-06-11T12:57:06.129Z,23.50
2023-06-11T12:58:03.673Z,23.40
2023-06-11T12:59:04.345Z,24.00
2023-06-11T13:00:03.930Z,24.10
2023-06-11T13:01:06.157Z,24.90
2023-06-11T13:02:03.767Z,25.10
2023-06-11T13:03:07.067Z,25.20
2023-06-11T13:04:06.199Z,25.90
2023-06-11T13:06:03.522Z,24.60
2023-06-11T13:07:04.315Z,25.10
2023-06-11T13:08:07.766Z,25.00
2023-06-11T13:09:04.321Z,24.80
2023-06-11T13:10:03.972Z,24.60
2023-06-11T13:11:06.133Z,23.50
2023-06-11T13:12:06.307Z,23.10
2023-06-11T13:14:03.619Z,24.20
2023-06-11T13:15:06.946Z,25.20
2023-06-11T13:16:06.125Z,25.00
2023-06-11T13:17:06.307Z,24.90
2023-06-11T13:19:03.883Z,25.20
2023-06-11T13:20:06.089Z,24.30
2023-06-11T13:21:06.101Z,24.50
2023-06-11T13:23:04.161Z,25.20
2023-06-11T13:24:04.048Z,25.60
2023-06-11T13:26:04.319Z,24.80
2023-06-11T13:27:06.467Z,25.80
2023-06-11T13:28:06.533Z,25.30
2023-06-11T13:29:06.625Z,24.90
2023-06-11T13:31:04.055Z,24.90
2023-06-11T13:32:03.708Z,25.20
2023-06-11T13:33:06.907Z,26.20
2023-06-11T13:35:09.315Z,24.70
2023-06-11T13:37:03.973Z,25.00
2023-06-11T13:38:03.608Z,24.60
2023-06-11T13:39:04.216Z,24.80
2023-06-11T13:40:06.665Z,24.90
2023-06-11T13:42:03.447Z,25.10
2023-06-11T13:43:09.263Z,24.70
2023-06-11T13:45:03.722Z,24.50
2023-06-11T13:46:04.400Z,25.00
2023-06-11T13:47:04.009Z,25.10
2023-06-11T13:48:06.444Z,24.20
2023-06-11T13:50:06.198Z,24.60
2023-06-11T13:51:03.722Z,24.70
2023-06-11T13:52:09.514Z,24.30
2023-06-11T13:54:06.856Z,23.50
2023-06-11T13:56:06.426Z,23.90
2023-06-11T13:59:04.238Z,23.80
2023-06-11T14:00:03.876Z,24.00
2023-06-11T14:01:08.851Z,23.80
2023-06-11T14:02:03.713Z,23.80
2023-06-11T14:03:07.225Z,23.90
2023-06-11T14:04:03.770Z,23.90
2023-06-11T14:05:04.348Z,24.30
2023-06-11T14:06:03.883Z,24.30
2023-06-11T14:07:03.585Z,24.10
2023-06-11T14:08:04.307Z,24.50
2023-06-11T14:09:03.994Z,24.70
2023-06-11T14:11:06.767Z,24.70
2023-06-11T14:12:09.486Z,24.90
2023-06-11T14:13:04.003Z,24.70
2023-06-11T14:14:06.307Z,24.90
2023-06-11T14:15:03.869Z,24.70
2023-06-11T14:16:03.518Z,24.00
2023-06-11T14:17:04.438Z,24.80
2023-06-11T14:18:06.372Z,24.70
2023-06-11T14:19:03.955Z,24.90
2023-06-11T14:20:03.692Z,25.00
2023-06-11T14:21:04.360Z,24.90
2023-06-11T14:23:03.609Z,25.30
2023-06-11T14:24:04.633Z,25.50
2023-06-11T14:25:07.055Z,24.40
2023-06-11T14:27:04.283Z,24.30
2023-06-11T14:28:06.485Z,24.60
2023-06-11T14:29:09.052Z,24.90
2023-06-11T14:31:04.238Z,25.20
2023-06-11T14:32:06.969Z,25.40
2023-06-11T14:34:04.298Z,25.40
2023-06-11T14:35:03.922Z,25.40
2023-06-11T14:37:04.198Z,25.30
2023-06-11T14:38:04.930Z,25.10
2023-06-11T14:40:04.447Z,26.40
2023-06-11T14:41:04.105Z,26.80
2023-06-11T14:42:08.743Z,25.70
2023-06-11T14:44:04.132Z,26.10
2023-06-11T14:45:06.526Z,26.80
2023-06-11T14:46:06.646Z,26.70
2023-06-11T14:47:04.164Z,26.10
2023-06-11T14:48:06.480Z,26.80
2023-06-11T14:49:11.980Z,26.10
2023-06-11T14:51:04.410Z,25.80
2023-06-11T14:53:03.733Z,25.80
2023-06-11T14:54:04.447Z,25.60
2023-06-11T14:55:06.829Z,26.10
2023-06-11T14:56:04.499Z,26.00
2023-06-11T14:57:06.869Z,25.50
2023-06-11T14:59:04.089Z,26.90
2023-06-11T15:00:06.274Z,26.50
2023-06-11T15:01:03.861Z,26.50
2023-06-11T15:02:03.746Z,26.80
2023-06-11T15:03:04.462Z,27.10
2023-06-11T15:04:09.345Z,27.10
2023-06-11T15:05:04.206Z,27.40
2023-06-11T15:06:03.846Z,27.90
2023-06-11T15:07:20.697Z,26.80
2023-06-11T15:08:03.900Z,26.90
2023-06-11T15:09:06.094Z,27.10
2023-06-11T15:11:06.180Z,27.00
2023-06-11T15:12:03.648Z,26.50
2023-06-11T15:13:04.319Z,26.20
2023-06-11T15:14:08.916Z,26.30
2023-06-11T15:16:06.587Z,26.30
2023-06-11T15:17:06.953Z,26.40
2023-06-11T15:18:03.544Z,26.40
2023-06-11T15:19:04.296Z,26.20
2023-06-11T15:20:06.691Z,26.70
2023-06-11T15:22:04.024Z,26.00
2023-06-11T15:24:07.124Z,25.90
2023-06-11T15:25:03.705Z,25.80
2023-06-11T15:26:07.158Z,25.10
2023-06-11T15:27:03.674Z,25.80
2023-06-11T15:28:04.343Z,25.90
2023-06-11T15:29:04.108Z,26.10
2023-06-11T15:31:04.531Z,26.20
2023-06-11T15:32:04.584Z,26.20
2023-06-11T15:33:04.468Z,26.10
2023-06-11T15:34:04.095Z,26.80
2023-06-11T15:35:06.306Z,26.70
2023-06-11T15:36:06.382Z,26.50
2023-06-11T15:37:06.439Z,26.80
2023-06-11T15:39:06.332Z,26.60
2023-06-11T15:40:06.453Z,25.90
2023-06-11T15:42:03.892Z,25.60
2023-06-11T15:44:07.013Z,25.80